^^
Meteo Knjazevac Station Historical Data
Daily Summary for June 10, 2021 Units:  Metric    English   Both
Daily Weekly Monthly Yearly Custom
  High: Low: Average:
Temperature: 2.9 °C 1 °C 1.6 °C
Dew Point: 2.8 °C 0.8 °C 1.5 °C
Humidity: 99% 99% 99%
Wind Speed: 4.8km/h 0km/h 1.4km/h
Wind Gust: 12.9km/h - -
Wind- - ESE
Pressure: 1009 hPa 1006.7 hPa -
Precipitation: 4.06 mm    
Historical Graphs
 
 
Tabular Data for June 10, 2021
Time Temperature Dew Point Pressure Wind Wind Speed Wind Gust Humidity Rainfall Rate (Hourly) solar Conditions
00:00 1 °C 0.8 °C 1009 hPa North 3.2 km/h 9.7 km/h 99% 0 mm 0 W/m2
00:10 1.1 °C 0.9 °C 1009 hPa NNE 3.2 km/h 8 km/h 99% 0 mm 0 W/m2
00:20 1.1 °C 0.9 °C 1009 hPa Calm   8 km/h 99% 0 mm 0 W/m2
00:30 1 °C 0.8 °C 1009 hPa North 1.6 km/h 8 km/h 99% 0 mm 0 W/m2
00:40 1.1 °C 0.9 °C 1008.7 hPa NNE 3.2 km/h 6.4 km/h 99% 0 mm 0 W/m2
00:50 1 °C 0.8 °C 1009 hPa North 1.6 km/h 6.4 km/h 99% 0 mm 0 W/m2
01:00 1 °C 0.8 °C 1008.7 hPa North 1.6 km/h 6.4 km/h 99% 0 mm 0 W/m2
01:10 1 °C 0.8 °C 1008.7 hPa Calm   4.8 km/h 99% 0 mm 0 W/m2
01:20 1.1 °C 0.9 °C 1008.7 hPa North 1.6 km/h 3.2 km/h 99% 0 mm 0 W/m2
01:30 1.1 °C 0.9 °C 1008.7 hPa NNE 3.2 km/h 4.8 km/h 99% 0 mm 0 W/m2
01:40 1.1 °C 0.9 °C 1009 hPa Calm   4.8 km/h 99% 0.25 mm 0 W/m2
01:50 1.1 °C 0.9 °C 1009 hPa Calm   3.2 km/h 99% 0.51 mm 0 W/m2
02:00 1.1 °C 0.9 °C 1008.7 hPa NE 3.2 km/h 6.4 km/h 99% 0.51 mm 0 W/m2
02:10 1.1 °C 0.9 °C 1009 hPa East 1.6 km/h 12.9 km/h 99% 0.25 mm 0 W/m2
02:20 1.1 °C 0.9 °C 1009 hPa NNE 3.2 km/h 8 km/h 99% 0 mm 0 W/m2
02:30 1.1 °C 0.9 °C 1009 hPa NW 1.6 km/h 4.8 km/h 99% 0 mm 0 W/m2
02:40 1.1 °C 0.9 °C 1009 hPa NNW 1.6 km/h 4.8 km/h 99% 0.25 mm 0 W/m2
02:50 1.1 °C 0.9 °C 1008.7 hPa North 3.2 km/h 6.4 km/h 99% 0.25 mm 0 W/m2
03:00 1.2 °C 1.1 °C 1008.7 hPa North 3.2 km/h 6.4 km/h 99% 0 mm 0 W/m2
03:10 1.2 °C 1.1 °C 1008.4 hPa NNE 1.6 km/h 4.8 km/h 99% 0.25 mm 0 W/m2
03:20 1.2 °C 1.1 °C 1008.4 hPa Calm   3.2 km/h 99% 0.25 mm 0 W/m2
03:30 1.2 °C 1.1 °C 1008.4 hPa Calm   6.4 km/h 99% 0.25 mm 0 W/m2
03:40 1.2 °C 1.1 °C 1008.4 hPa Calm   4.8 km/h 99% 0.25 mm 0 W/m2
03:50 1.2 °C 1.1 °C 1008 hPa North 1.6 km/h 8 km/h 99% 0 mm 0 W/m2
04:00 1.2 °C 1.1 °C 1008.4 hPa WNW 1.6 km/h 6.4 km/h 99% 0 mm 0 W/m2
04:10 1.2 °C 1.1 °C 1008.4 hPa Calm   8 km/h 99% 0 mm 0 W/m2
04:20 1.2 °C 1.1 °C 1008.4 hPa North 3.2 km/h 6.4 km/h 99% 0 mm 0 W/m2
04:30 1.3 °C 1.1 °C 1008 hPa NNE 1.6 km/h 8 km/h 99% 0 mm 0 W/m2
04:40 1.3 °C 1.2 °C 1008 hPa WNW 3.2 km/h 4.8 km/h 99% 0 mm 0 W/m2
04:50 1.2 °C 1.1 °C 1008 hPa North 1.6 km/h 6.4 km/h 99% 0 mm 0 W/m2
05:00 1.3 °C 1.1 °C 1007.7 hPa Calm   11.3 km/h 99% 0 mm 0 W/m2
05:10 1.3 °C 1.1 °C 1008 hPa Calm   3.2 km/h 99% 0 mm 0 W/m2
05:20 1.2 °C 1.1 °C 1007.7 hPa Calm   4.8 km/h 99% 0 mm 0 W/m2
05:30 1.3 °C 1.1 °C 1008 hPa NE 1.6 km/h 4.8 km/h 99% 0 mm 0 W/m2
05:40 1.2 °C 1.1 °C 1008 hPa NE 1.6 km/h 4.8 km/h 99% 0 mm 0 W/m2
05:50 1.2 °C 1.1 °C 1008 hPa Calm   3.2 km/h 99% 0 mm 0 W/m2
06:00 1.2 °C 1.1 °C 1007.7 hPa Calm   3.2 km/h 99% 0 mm 0 W/m2
06:10 1.2 °C 1.1 °C 1007.7 hPa Calm   6.4 km/h 99% 0 mm 0 W/m2
06:20 1.2 °C 1.1 °C 1007.7 hPa North 1.6 km/h 4.8 km/h 99% 0 mm 0 W/m2
06:30 1.2 °C 1.1 °C 1007.7 hPa North 1.6 km/h 3.2 km/h 99% 0 mm 0 W/m2
06:40 1.2 °C 1.1 °C 1008 hPa NNW 1.6 km/h 3.2 km/h 99% 0 mm 0 W/m2
06:50 1.2 °C 1.1 °C 1008 hPa Calm   3.2 km/h 99% 0 mm 0 W/m2
07:00 1.2 °C 1.1 °C 1007.7 hPa North 1.6 km/h 4.8 km/h 99% 0 mm 1 W/m2
07:10 1.2 °C 1.1 °C 1007.7 hPa NNE 1.6 km/h 4.8 km/h 99% 0 mm 2 W/m2
07:20 1.3 °C 1.1 °C 1008 hPa NNE 1.6 km/h 4.8 km/h 99% 0.25 mm 4 W/m2
07:30 1.3 °C 1.2 °C 1008 hPa Calm   4.8 km/h 99% 0.25 mm 7 W/m2
07:40 1.3 °C 1.2 °C 1008 hPa North 1.6 km/h 3.2 km/h 99% 0 mm 12 W/m2
07:50 1.3 °C 1.2 °C 1007.7 hPa NNE 1.6 km/h 3.2 km/h 99% 0 mm 19 W/m2
08:00 1.4 °C 1.3 °C 1008 hPa Calm   3.2 km/h 99% 0 mm 34 W/m2
08:10 1.4 °C 1.3 °C 1007.7 hPa North 1.6 km/h 6.4 km/h 99% 0 mm 46 W/m2
08:20 1.4 °C 1.3 °C 1008 hPa NNE 3.2 km/h 4.8 km/h 99% 0 mm 45 W/m2
08:30 1.5 °C 1.3 °C 1008 hPa NNE 1.6 km/h 4.8 km/h 99% 0 mm 50 W/m2
08:40 1.5 °C 1.3 °C 1008 hPa Calm   6.4 km/h 99% 0 mm 51 W/m2
08:50 1.5 °C 1.3 °C 1008 hPa North 1.6 km/h 4.8 km/h 99% 0 mm 52 W/m2
09:00 1.6 °C 1.4 °C 1008 hPa NNE 1.6 km/h 4.8 km/h 99% 0 mm 54 W/m2
09:10 1.7 °C 1.6 °C 1007.7 hPa NNE 1.6 km/h 8 km/h 99% 0 mm 83 W/m2
09:20 1.8 °C 1.7 °C 1007.7 hPa NE 4.8 km/h 9.7 km/h 99% 0 mm 102 W/m2
09:30 1.9 °C 1.8 °C 1008 hPa NNW 1.6 km/h 3.2 km/h 99% 0 mm 57 W/m2
09:40 1.9 °C 1.8 °C 1007.7 hPa North 1.6 km/h 6.4 km/h 99% 0 mm 75 W/m2
09:50 2 °C 1.8 °C 1008 hPa Calm   3.2 km/h 99% 0 mm 90 W/m2
10:00 2.1 °C 1.9 °C 1008 hPa Calm   8 km/h 99% 0 mm 62 W/m2
10:10 2.1 °C 1.9 °C 1008 hPa North 1.6 km/h 8 km/h 99% 0 mm 41 W/m2
10:20 2.1 °C 1.9 °C 1008 hPa North 1.6 km/h 8 km/h 99% 0 mm 40 W/m2
10:30 2.2 °C 2.1 °C 1007.7 hPa North 3.2 km/h 8 km/h 99% 0 mm 61 W/m2
10:40 2.3 °C 2.1 °C 1007.7 hPa NNE 1.6 km/h 8 km/h 99% 0 mm 86 W/m2
10:50 2.4 °C 2.3 °C 1007.7 hPa NNE 3.2 km/h 8 km/h 99% 0 mm 80 W/m2
11:00 2.4 °C 2.3 °C 1007.3 hPa North 1.6 km/h 9.7 km/h 99% 0 mm 78 W/m2
11:10 2.4 °C 2.3 °C 1007.3 hPa North 1.6 km/h 6.4 km/h 99% 0 mm 73 W/m2
11:20 2.4 °C 2.3 °C 1007.3 hPa North 1.6 km/h 6.4 km/h 99% 0 mm 58 W/m2
11:30 2.5 °C 2.3 °C 1007.3 hPa Calm   4.8 km/h 99% 0 mm 52 W/m2
11:40 2.5 °C 2.3 °C 1007 hPa NNE 3.2 km/h 8 km/h 99% 0 mm 72 W/m2
11:50 2.5 °C 2.3 °C 1007 hPa NNE 1.6 km/h 8 km/h 99% 0 mm 67 W/m2
12:00 2.5 °C 2.3 °C 1007 hPa North 1.6 km/h 6.4 km/h 99% 0 mm 72 W/m2
12:10 2.6 °C 2.4 °C 1007 hPa North 1.6 km/h 6.4 km/h 99% 0 mm 61 W/m2
12:20 2.6 °C 2.4 °C 1007 hPa Calm   3.2 km/h 99% 0 mm 104 W/m2
12:30 2.7 °C 2.6 °C 1007 hPa North 1.6 km/h 6.4 km/h 99% 0 mm 74 W/m2
12:40 2.8 °C 2.7 °C 1007 hPa North 1.6 km/h 4.8 km/h 99% 0 mm 46 W/m2
12:50 2.8 °C 2.7 °C 1006.7 hPa NNE 1.6 km/h 4.8 km/h 99% 0 mm 66 W/m2
13:00 2.8 °C 2.7 °C 1006.7 hPa NNE 3.2 km/h 6.4 km/h 99% 0 mm 61 W/m2
13:10 2.8 °C 2.7 °C 1006.7 hPa Calm   4.8 km/h 99% 0 mm 64 W/m2
13:20 2.9 °C 2.8 °C 1006.7 hPa NNE 1.6 km/h 4.8 km/h 99% 0 mm 46 W/m2
13:30 2.9 °C 2.8 °C 1006.7 hPa Calm   4.8 km/h 99% 0 mm 39 W/m2
13:40 2.9 °C 2.8 °C 1006.7 hPa Calm   8 km/h 99% 0 mm 58 W/m2
13:50 2.9 °C 2.8 °C 1006.7 hPa North 1.6 km/h 4.8 km/h 99% 0 mm 62 W/m2
Knjazevac, Serbia
Compliments of Weather Underground - 2 mb